Dahlonega, GA

1:33 PM EDT on July 23, 2016 (GMT -0400)
Myers Chance Rd. | | Change Station

Elev 1530 ft 34.58 °N, 83.98 °W | Updated 4 seconds ago

Clear
Clear
71.1 °F
Feels Like 71.1 °F
N
0.8
Wind Variable Wind from North
Gusts 2.2 mph

Today
High -- | Low -- °F
--% Chance of Precip.
Yesterday
High -- | Low -- °F
Precip. -- in
Pressure 30.01 in
Visibility 10.0 miles
Clouds Clear
Dew Point 67 °F
Humidity 88%
Rainfall 0.17 in
Snow Depth Not available.
6:40 AM 8:44 PM
Waning Gibbous, 84% visible
METAR KGVL 231653Z AUTO 27007KT 230V300 10SM CLR 32/22 A3007 RMK AO2 LTG DSNT N AND NW SLP162 T03220217
Pressure 30.01 in
Visibility 10.0 miles
Clouds Clear
Dew Point 67 °F
Humidity 88%
Rainfall 0.17 in
Snow Depth Not available.
6:40 AM 8:44 PM
Waning Gibbous, 84% visible
METAR KGVL 231653Z AUTO 27007KT 230V300 10SM CLR 32/22 A3007 RMK AO2 LTG DSNT N AND NW SLP162 T03220217

10-Day Weather Forecast

Almanac

Astronomy

Jul. 23, 2016 Rise Set
Actual Time
Civil Twilight
Nautical Twilight
Astronomical Twilight
Moon
Length of Visible Light
Length of Day
Tomorrow will be .
, % of the Moon is Illuminated

Today's Extremes

State Highs State Lows

Community

WunderPhotos

Upload Photos

1,926,878 photos uploaded!

WunderBlog® & News

Nearby

Air Quality

  Air Quality AQ Index Pollutant
Not available.

Snow Depth

Station Depth Elevation

Earthquake Activity

City Distance Mag. Time & Date
Minimum magnitude displayed is 2.5.

Coastal Water Temperatures

Place Temperature

Stations

Nearby Weather Stations

Station Location Temp. Windchill Dew Point Humidity Wind Precip. Elev Updated Type
                   

Watches & Warnings

There are currently no watches in effect.